createdAt,value
2023-04-05T00:02:11.120Z,9.06
2023-04-05T00:04:38.801Z,8.99
2023-04-05T00:07:08.268Z,8.96
2023-04-05T00:09:34.896Z,8.89
2023-04-05T00:12:01.504Z,8.84
2023-04-05T00:14:28.081Z,8.77
2023-04-05T00:16:55.037Z,8.71
2023-04-05T00:19:23.333Z,8.68
2023-04-05T00:21:50.190Z,8.65
2023-04-05T00:24:17.002Z,8.63
2023-04-05T00:26:44.161Z,8.57
2023-04-05T00:29:10.900Z,8.55
2023-04-05T00:31:37.701Z,8.50
2023-04-05T00:34:06.027Z,8.47
2023-04-05T00:36:32.756Z,8.47
2023-04-05T00:38:59.330Z,8.47
2023-04-05T00:41:25.858Z,8.45
2023-04-05T00:43:52.440Z,8.43
2023-04-05T00:46:19.022Z,8.40
2023-04-05T00:48:45.952Z,8.35
2023-04-05T00:51:12.623Z,8.33
2023-04-05T00:53:40.753Z,8.30
2023-04-05T00:56:08.559Z,8.30
2023-04-05T00:58:35.077Z,8.26
2023-04-05T01:01:14.182Z,8.31
2023-04-05T01:03:47.310Z,8.30
2023-04-05T01:06:27.565Z,8.29
2023-04-05T01:09:32.872Z,8.28
2023-04-05T01:12:02.445Z,8.27
2023-04-05T01:14:29.036Z,8.17
2023-04-05T01:16:58.443Z,8.16
2023-04-05T01:19:29.182Z,8.18
2023-04-05T01:22:13.706Z,8.66
2023-04-05T01:25:10.977Z,8.31
2023-04-05T01:28:03.960Z,8.33
2023-04-05T01:30:34.984Z,8.19
2023-04-05T01:33:04.837Z,8.64
2023-04-05T01:35:45.104Z,8.24
2023-04-05T01:38:14.278Z,8.09
2023-04-05T01:40:42.147Z,7.99
2023-04-05T01:43:15.976Z,8.02
2023-04-05T01:45:43.408Z,7.92
2023-04-05T01:48:10.292Z,7.92
2023-04-05T01:50:37.060Z,7.86
2023-04-05T01:53:03.831Z,7.84
2023-04-05T01:55:30.458Z,7.83
2023-04-05T01:57:58.103Z,7.81
2023-04-05T02:00:24.963Z,7.76
2023-04-05T02:02:51.902Z,7.77
2023-04-05T02:05:18.517Z,7.76
2023-04-05T02:07:45.078Z,7.73
2023-04-05T02:10:12.072Z,7.72
2023-04-05T02:12:39.272Z,7.68
2023-04-05T02:15:06.855Z,7.71
2023-04-05T02:17:39.476Z,7.65
2023-04-05T02:20:07.816Z,7.67
2023-04-05T02:22:34.737Z,7.66
2023-04-05T02:25:01.690Z,7.61
2023-04-05T02:27:28.218Z,7.55
2023-04-05T02:29:55.814Z,7.54
2023-04-05T02:32:22.324Z,7.49
2023-04-05T02:34:48.816Z,7.48
2023-04-05T02:37:15.404Z,7.46
2023-04-05T02:39:41.983Z,7.46
2023-04-05T02:42:08.608Z,7.48
2023-04-05T02:44:35.552Z,7.47
2023-04-05T02:47:02.468Z,7.46
2023-04-05T02:49:31.817Z,7.46
2023-04-05T02:52:01.184Z,7.45
2023-04-05T02:54:27.805Z,7.43
2023-04-05T02:57:02.379Z,7.39
2023-04-05T02:59:34.189Z,7.39
2023-04-05T03:02:01.448Z,7.42
2023-04-05T03:04:28.417Z,7.48
2023-04-05T03:07:04.901Z,7.48
2023-04-05T03:09:35.024Z,7.54
2023-04-05T03:12:06.064Z,7.53
2023-04-05T03:14:36.590Z,7.60
2023-04-05T03:17:03.419Z,7.59
2023-04-05T03:19:38.554Z,7.61
2023-04-05T03:22:13.671Z,7.65
2023-04-05T03:24:42.549Z,7.68
2023-04-05T03:27:11.671Z,7.76
2023-04-05T03:29:52.596Z,7.74
2023-04-05T03:32:19.191Z,7.81
2023-04-05T03:34:51.973Z,7.79
2023-04-05T03:37:20.169Z,7.74
2023-04-05T03:39:57.472Z,7.81
2023-04-05T03:42:24.433Z,7.88
2023-04-05T03:44:53.160Z,7.94
2023-04-05T03:47:19.981Z,7.99
2023-04-05T03:49:46.486Z,8.11
2023-04-05T03:52:13.000Z,8.15
2023-04-05T03:54:43.977Z,8.77
2023-04-05T03:57:11.477Z,8.36
2023-04-05T03:59:39.888Z,8.31
2023-04-05T04:02:07.741Z,8.29
2023-04-05T04:04:34.432Z,8.31
2023-04-05T04:07:01.006Z,8.32
2023-04-05T04:09:32.094Z,8.34
2023-04-05T04:12:05.620Z,8.31
2023-04-05T04:14:37.204Z,8.36
2023-04-05T04:17:36.142Z,8.48
2023-04-05T04:20:27.367Z,8.40
2023-04-05T04:23:14.516Z,8.38
2023-04-05T04:26:03.084Z,8.40
2023-04-05T04:28:48.771Z,8.47
2023-04-05T04:31:33.940Z,8.44
2023-04-05T04:34:30.595Z,8.50
2023-04-05T04:37:30.248Z,8.47
2023-04-05T04:40:47.871Z,8.54
2023-04-05T04:43:27.280Z,8.51
2023-04-05T04:46:15.299Z,8.57
2023-04-05T04:49:06.662Z,8.61
2023-04-05T04:51:33.939Z,8.56
2023-04-05T04:54:00.761Z,8.57
2023-04-05T04:56:27.496Z,8.59
2023-04-05T04:58:56.403Z,8.60
2023-04-05T05:01:25.025Z,8.57
2023-04-05T05:03:52.221Z,8.66
2023-04-05T05:06:23.721Z,8.65
2023-04-05T05:08:50.834Z,8.65
2023-04-05T05:11:17.365Z,8.67
2023-04-05T05:13:43.917Z,8.71
2023-04-05T05:16:17.861Z,8.77
2023-04-05T05:18:48.093Z,8.78
2023-04-05T05:21:14.603Z,8.84
2023-04-05T05:23:41.546Z,8.83
2023-04-05T05:26:08.082Z,8.89
2023-04-05T05:28:34.670Z,8.97
2023-04-05T05:31:01.203Z,9.04
2023-04-05T05:33:27.773Z,9.10
2023-04-05T05:35:54.346Z,9.19
2023-04-05T05:38:20.921Z,9.28
2023-04-05T05:40:47.425Z,9.35
2023-04-05T05:43:13.962Z,9.41
2023-04-05T05:45:40.496Z,9.49
2023-04-05T05:48:07.099Z,9.56
2023-04-05T05:50:33.688Z,9.53
2023-04-05T05:53:01.603Z,9.59
2023-04-05T05:55:28.545Z,9.71
2023-04-05T05:57:55.254Z,9.75
2023-04-05T06:00:22.781Z,9.88
2023-04-05T06:02:49.633Z,9.96
2023-04-05T06:05:16.276Z,9.99
2023-04-05T06:07:42.779Z,10.11
2023-04-05T06:10:09.664Z,10.26
2023-04-05T06:12:36.154Z,10.37
2023-04-05T06:15:02.987Z,10.46
2023-04-05T06:17:29.619Z,10.57
2023-04-05T06:19:56.189Z,10.58
2023-04-05T06:22:23.672Z,10.68
2023-04-05T06:24:50.238Z,10.76
2023-04-05T06:27:16.861Z,10.89
2023-04-05T06:29:43.476Z,11.04
2023-04-05T06:32:10.127Z,12.48
2023-04-05T06:34:36.969Z,15.22
2023-04-05T06:37:03.579Z,17.41
2023-04-05T06:39:30.141Z,17.96
2023-04-05T06:41:56.679Z,16.84
2023-04-05T06:44:27.684Z,16.72
2023-04-05T06:46:54.177Z,15.52
2023-04-05T06:49:20.726Z,15.21
2023-04-05T06:51:47.230Z,15.19
2023-04-05T06:54:13.838Z,14.98
2023-04-05T06:56:40.601Z,14.63
2023-04-05T06:59:07.135Z,14.19
2023-04-05T07:01:33.753Z,13.95
2023-04-05T07:04:00.728Z,13.70
2023-04-05T07:06:27.355Z,13.70
2023-04-05T07:08:53.873Z,13.63
2023-04-05T07:11:21.464Z,13.54
2023-04-05T07:13:47.967Z,13.56
2023-04-05T07:16:14.546Z,13.45
2023-04-05T07:18:41.065Z,13.41
2023-04-05T07:21:07.599Z,13.37
2023-04-05T07:23:34.093Z,13.68
2023-04-05T07:26:04.465Z,13.64
2023-04-05T07:28:35.611Z,13.84
2023-04-05T07:31:03.178Z,14.02
2023-04-05T07:33:29.664Z,13.94
2023-04-05T07:35:57.046Z,13.94
2023-04-05T07:38:24.000Z,13.91
2023-04-05T07:40:51.155Z,14.08
2023-04-05T07:43:18.651Z,14.28
2023-04-05T07:45:45.615Z,14.46
2023-04-05T07:48:12.121Z,14.67
2023-04-05T07:50:41.125Z,15.58
2023-04-05T07:53:08.255Z,16.62
2023-04-05T07:55:37.820Z,17.03
2023-04-05T07:58:04.315Z,17.22
2023-04-05T08:00:30.836Z,17.57
2023-04-05T08:03:00.639Z,17.85
2023-04-05T08:05:28.566Z,19.07
2023-04-05T08:07:57.965Z,20.50
2023-04-05T08:10:24.918Z,21.06
2023-04-05T08:12:51.456Z,20.94
2023-04-05T08:15:17.954Z,22.50
2023-04-05T08:17:44.519Z,24.35
2023-04-05T08:20:11.392Z,26.16
2023-04-05T08:22:37.903Z,27.68
2023-04-05T08:25:04.633Z,28.93
2023-04-05T08:27:31.186Z,29.44
2023-04-05T08:29:57.735Z,29.83
2023-04-05T08:32:24.281Z,30.44
2023-04-05T08:34:50.766Z,30.08
2023-04-05T08:37:17.280Z,29.57
2023-04-05T08:39:43.773Z,30.12
2023-04-05T08:42:18.822Z,31.17
2023-04-05T08:44:46.565Z,30.35
2023-04-05T08:47:15.318Z,30.45
2023-04-05T08:49:45.888Z,30.18
2023-04-05T08:52:12.493Z,29.70
2023-04-05T08:54:39.137Z,29.86
2023-04-05T08:57:06.195Z,30.38
2023-04-05T08:59:35.527Z,30.10
2023-04-05T09:02:04.553Z,29.70
2023-04-05T09:04:32.533Z,27.77
2023-04-05T09:06:59.488Z,26.15
2023-04-05T09:09:26.255Z,25.65
2023-04-05T09:11:53.072Z,26.76
2023-04-05T09:14:20.771Z,27.32
2023-04-05T09:16:47.310Z,28.36
2023-04-05T09:19:14.080Z,28.17
2023-04-05T09:22:00.644Z,28.31
2023-04-05T09:24:35.389Z,28.54
2023-04-05T09:27:13.005Z,28.95
2023-04-05T09:29:41.403Z,27.94
2023-04-05T09:32:10.142Z,27.29
2023-04-05T09:34:44.752Z,27.78
2023-04-05T09:37:20.774Z,27.96
2023-04-05T09:39:49.857Z,27.68
2023-04-05T09:42:19.256Z,25.20
2023-04-05T09:44:54.031Z,25.97
2023-04-05T09:47:22.415Z,24.54
2023-04-05T09:49:53.466Z,24.16
2023-04-05T09:52:32.111Z,23.86
2023-04-05T09:55:01.725Z,22.90
2023-04-05T09:57:30.476Z,22.39
2023-04-05T09:59:57.017Z,22.30
2023-04-05T10:02:24.104Z,22.38
2023-04-05T10:04:51.218Z,22.73
2023-04-05T10:07:19.822Z,23.05
2023-04-05T10:09:47.521Z,22.88
2023-04-05T10:12:23.313Z,22.69
2023-04-05T10:14:49.936Z,21.98
2023-04-05T10:17:20.183Z,21.36
2023-04-05T10:20:13.944Z,20.88
2023-04-05T10:23:03.677Z,20.44
2023-04-05T10:25:50.402Z,19.75
2023-04-05T10:28:25.282Z,19.58
2023-04-05T10:30:53.079Z,19.38
2023-04-05T10:33:31.961Z,19.27
2023-04-05T10:36:38.234Z,19.33
2023-04-05T10:39:26.470Z,18.78
2023-04-05T10:41:54.954Z,18.09
2023-04-05T10:44:26.258Z,17.95
2023-04-05T10:46:54.668Z,17.78
2023-04-05T10:49:37.696Z,17.49
2023-04-05T10:52:04.538Z,17.09
2023-04-05T10:54:36.671Z,17.09
2023-04-05T10:57:07.594Z,16.76
2023-04-05T10:59:36.513Z,16.48
2023-04-05T11:02:04.277Z,16.30
2023-04-05T11:04:33.635Z,16.50
2023-04-05T11:07:14.673Z,16.55
2023-04-05T11:09:51.601Z,16.39
2023-04-05T11:12:18.259Z,16.33
2023-04-05T11:14:44.907Z,16.25
2023-04-05T11:17:28.529Z,16.20
2023-04-05T11:20:05.317Z,15.60
2023-04-05T11:22:31.923Z,15.22
2023-04-05T11:25:02.783Z,15.01
2023-04-05T11:27:34.197Z,15.06
2023-04-05T11:30:02.126Z,15.07
2023-04-05T11:32:45.489Z,15.18
2023-04-05T11:35:17.735Z,15.30
2023-04-05T11:37:53.313Z,15.34
2023-04-05T11:40:28.018Z,15.32
2023-04-05T11:43:10.044Z,15.21
2023-04-05T11:45:38.428Z,15.42
2023-04-05T11:48:10.058Z,15.24
2023-04-05T11:50:38.412Z,15.59
2023-04-05T11:53:12.516Z,15.85
2023-04-05T11:55:40.812Z,15.85
2023-04-05T11:58:12.402Z,16.08
2023-04-05T12:00:39.511Z,16.03
2023-04-05T12:03:06.313Z,16.19
2023-04-05T12:05:52.385Z,16.36
2023-04-05T12:08:20.051Z,16.00
2023-04-05T12:11:02.153Z,16.33
2023-04-05T12:13:32.520Z,16.11
2023-04-05T12:16:00.042Z,16.09
2023-04-05T12:18:27.750Z,15.88
2023-04-05T12:20:54.903Z,15.76
2023-04-05T12:23:22.742Z,15.72
2023-04-05T12:25:49.326Z,15.74
2023-04-05T12:28:16.159Z,15.83
2023-04-05T12:30:58.816Z,16.14
2023-04-05T12:33:30.341Z,16.20
2023-04-05T12:35:57.291Z,16.10
2023-04-05T12:38:27.646Z,15.95
2023-04-05T12:40:54.968Z,15.70
2023-04-05T12:43:21.562Z,15.92
2023-04-05T12:45:50.527Z,16.09
2023-04-05T12:48:22.471Z,16.24
2023-04-05T12:50:51.956Z,16.18
2023-04-05T12:53:21.120Z,16.38
2023-04-05T12:55:52.846Z,16.69
2023-04-05T12:58:20.393Z,16.66
2023-04-05T13:00:47.361Z,16.89
2023-04-05T13:03:20.655Z,17.24
2023-04-05T13:05:50.748Z,17.44
2023-04-05T13:08:20.204Z,17.75
2023-04-05T13:10:48.024Z,18.12
2023-04-05T13:13:16.360Z,18.78
2023-04-05T13:15:43.757Z,19.58
2023-04-05T13:18:10.748Z,20.52
2023-04-05T13:20:37.729Z,21.30
2023-04-05T13:23:04.277Z,21.77
2023-04-05T13:25:30.825Z,22.03
2023-04-05T13:27:57.381Z,22.09
2023-04-05T13:30:23.983Z,22.02
2023-04-05T13:32:50.545Z,22.10
2023-04-05T13:35:17.148Z,22.17
2023-04-05T13:37:43.639Z,22.07
2023-04-05T13:40:10.609Z,21.89
2023-04-05T13:42:37.259Z,21.49
2023-04-05T13:45:04.606Z,21.15
2023-04-05T13:47:31.188Z,20.97
2023-04-05T13:49:57.779Z,20.67
2023-04-05T13:52:25.872Z,20.47
2023-04-05T13:55:03.475Z,20.11
2023-04-05T13:57:30.506Z,19.85
2023-04-05T13:59:57.133Z,19.55
2023-04-05T14:02:26.069Z,19.18
2023-04-05T14:04:53.527Z,18.98
2023-04-05T14:07:24.052Z,19.02
2023-04-05T14:09:50.571Z,19.02
2023-04-05T14:12:17.798Z,18.97
2023-04-05T14:14:44.337Z,18.90
2023-04-05T14:17:12.609Z,18.82
2023-04-05T14:19:39.679Z,18.62
2023-04-05T14:22:06.230Z,18.42
2023-04-05T14:24:32.782Z,18.25
2023-04-05T14:26:59.326Z,18.24
2023-04-05T14:29:25.995Z,18.31
2023-04-05T14:31:54.744Z,18.44
2023-04-05T14:34:21.295Z,18.26
2023-04-05T14:36:47.803Z,18.44
2023-04-05T14:39:14.310Z,18.73
2023-04-05T14:41:41.059Z,18.55
2023-04-05T14:44:07.553Z,18.16
2023-04-05T14:46:34.128Z,18.06
2023-04-05T14:49:00.675Z,17.97
2023-04-05T14:51:27.456Z,17.78
2023-04-05T14:53:53.980Z,17.56
2023-04-05T14:56:21.099Z,17.39
2023-04-05T14:58:47.673Z,17.30
2023-04-05T15:01:14.375Z,17.26
2023-04-05T15:03:41.109Z,17.29
2023-04-05T15:06:07.790Z,17.25
2023-04-05T15:08:34.300Z,17.19
2023-04-05T15:11:00.957Z,17.12
2023-04-05T15:13:27.552Z,17.09
2023-04-05T15:15:54.076Z,16.99
2023-04-05T15:18:20.911Z,16.94
2023-04-05T15:20:47.469Z,16.96
2023-04-05T15:23:14.096Z,17.02
2023-04-05T15:25:40.652Z,16.92
2023-04-05T15:28:07.296Z,16.88
2023-04-05T15:30:33.930Z,16.73
2023-04-05T15:33:00.809Z,16.77
2023-04-05T15:35:27.607Z,16.73
2023-04-05T15:37:54.208Z,16.62
2023-04-05T15:40:20.836Z,16.68
2023-04-05T15:42:47.371Z,16.64
2023-04-05T15:45:13.954Z,16.70
2023-04-05T15:47:41.603Z,16.73
2023-04-05T15:50:08.248Z,16.73
2023-04-05T15:52:35.432Z,16.75
2023-04-05T15:55:02.633Z,16.76
2023-04-05T15:57:29.188Z,16.76
2023-04-05T15:59:55.693Z,16.75
2023-04-05T16:02:22.514Z,16.68
2023-04-05T16:04:49.116Z,16.67
2023-04-05T16:07:15.679Z,16.60
2023-04-05T16:09:42.198Z,16.54
2023-04-05T16:12:08.730Z,16.48
2023-04-05T16:14:35.285Z,16.41
2023-04-05T16:17:01.974Z,16.43
2023-04-05T16:19:28.526Z,16.36
2023-04-05T16:21:55.899Z,16.35
2023-04-05T16:24:22.574Z,16.35
2023-04-05T16:26:49.317Z,16.36
2023-04-05T16:29:15.863Z,16.21
2023-04-05T16:31:47.122Z,16.19
2023-04-05T16:34:14.159Z,16.11
2023-04-05T16:36:41.766Z,15.75
2023-04-05T16:39:08.868Z,15.52
2023-04-05T16:41:37.957Z,15.61
2023-04-05T16:44:04.634Z,15.53
2023-04-05T16:46:32.291Z,15.33
2023-04-05T16:49:02.493Z,15.18
2023-04-05T16:51:29.294Z,15.30
2023-04-05T16:53:55.968Z,15.19
2023-04-05T16:56:23.408Z,14.89
2023-04-05T16:58:50.018Z,14.93
2023-04-05T17:01:16.778Z,15.08
2023-04-05T17:03:46.940Z,15.04
2023-04-05T17:06:14.521Z,14.85
2023-04-05T17:08:41.117Z,14.83
2023-04-05T17:11:07.776Z,14.90
2023-04-05T17:13:34.284Z,14.96
2023-04-05T17:16:00.953Z,14.78
2023-04-05T17:18:27.685Z,14.64
2023-04-05T17:20:54.215Z,14.71
2023-04-05T17:23:20.790Z,14.71
2023-04-05T17:25:47.373Z,14.56
2023-04-05T17:28:13.941Z,14.51
2023-04-05T17:30:40.487Z,14.45
2023-04-05T17:33:07.044Z,14.30
2023-04-05T17:35:33.751Z,14.43
2023-04-05T17:38:03.155Z,14.27
2023-04-05T17:40:30.721Z,14.40
2023-04-05T17:42:57.222Z,14.40
2023-04-05T17:45:23.847Z,14.37
2023-04-05T17:47:50.485Z,14.35
2023-04-05T17:50:17.181Z,14.17
2023-04-05T17:52:43.799Z,14.18
2023-04-05T17:55:10.460Z,14.08
2023-04-05T17:57:36.948Z,14.13
2023-04-05T18:00:04.108Z,13.99
2023-04-05T18:02:31.506Z,13.99
2023-04-05T18:04:58.089Z,14.07
2023-04-05T18:07:24.627Z,14.06
2023-04-05T18:09:51.156Z,14.02
2023-04-05T18:12:18.215Z,14.05
2023-04-05T18:14:44.863Z,14.08
2023-04-05T18:17:11.499Z,14.08
2023-04-05T18:19:38.199Z,14.06
2023-04-05T18:22:04.883Z,13.97
2023-04-05T18:24:31.505Z,13.95
2023-04-05T18:26:58.098Z,13.96
2023-04-05T18:29:28.374Z,13.86
2023-04-05T18:31:55.872Z,13.86
2023-04-05T18:34:22.510Z,13.74
2023-04-05T18:36:49.040Z,13.80
2023-04-05T18:39:16.694Z,13.72
2023-04-05T18:41:43.256Z,13.76
2023-04-05T18:44:09.799Z,13.87
2023-04-05T18:46:36.356Z,13.88
2023-04-05T18:49:03.252Z,13.87
2023-04-05T18:51:29.905Z,13.91
2023-04-05T18:53:57.576Z,13.77
2023-04-05T18:56:24.168Z,13.78
2023-04-05T18:58:51.146Z,13.48
2023-04-05T19:01:19.811Z,13.21
2023-04-05T19:03:47.346Z,13.12
2023-04-05T19:06:14.168Z,13.19
2023-04-05T19:08:40.999Z,13.26
2023-04-05T19:11:07.683Z,13.26
2023-04-05T19:13:34.248Z,13.68
2023-04-05T19:16:00.829Z,13.76
2023-04-05T19:18:28.020Z,13.82
2023-04-05T19:20:55.945Z,13.75
2023-04-05T19:23:22.924Z,13.72
2023-04-05T19:25:49.453Z,13.66
2023-04-05T19:28:16.312Z,13.63
2023-04-05T19:30:43.524Z,13.60
2023-04-05T19:33:10.462Z,13.57
2023-04-05T19:35:37.160Z,13.63
2023-04-05T19:38:04.880Z,13.67
2023-04-05T19:40:31.617Z,13.72
2023-04-05T19:42:59.681Z,13.60
2023-04-05T19:45:27.626Z,13.46
2023-04-05T19:47:55.255Z,13.45
2023-04-05T19:50:47.995Z,13.56
2023-04-05T19:53:41.755Z,13.67
2023-04-05T19:56:21.009Z,13.70
2023-04-05T19:58:49.367Z,13.61
2023-04-05T20:01:34.279Z,13.71
2023-04-05T20:04:02.570Z,13.48
2023-04-05T20:06:30.273Z,13.45
2023-04-05T20:09:02.418Z,13.34
2023-04-05T20:11:29.035Z,13.34
2023-04-05T20:13:56.995Z,13.45
2023-04-05T20:16:28.881Z,13.57
2023-04-05T20:18:59.292Z,13.60
2023-04-05T20:21:26.133Z,13.50
2023-04-05T20:23:52.953Z,13.46
2023-04-05T20:26:29.514Z,13.39
2023-04-05T20:29:01.051Z,13.41
2023-04-05T20:31:29.461Z,13.39
2023-04-05T20:34:15.413Z,13.56
2023-04-05T20:36:50.894Z,13.43
2023-04-05T20:39:17.504Z,13.30
2023-04-05T20:41:44.755Z,13.27
2023-04-05T20:44:11.296Z,13.33
2023-04-05T20:46:37.978Z,13.27
2023-04-05T20:49:04.742Z,13.30
2023-04-05T20:51:31.726Z,13.36
2023-04-05T20:53:58.332Z,13.36
2023-04-05T20:56:25.054Z,13.33
2023-04-05T20:58:51.650Z,13.33
2023-04-05T21:01:18.307Z,13.26
2023-04-05T21:03:45.051Z,13.22
2023-04-05T21:06:11.767Z,13.18
2023-04-05T21:08:39.722Z,13.22
2023-04-05T21:11:07.162Z,13.22
2023-04-05T21:13:33.813Z,13.17
2023-04-05T21:16:00.652Z,13.23
2023-04-05T21:18:27.273Z,13.21
2023-04-05T21:20:54.226Z,13.15
2023-04-05T21:23:22.945Z,13.21
2023-04-05T21:25:50.001Z,13.17
2023-04-05T21:28:16.788Z,13.21
2023-04-05T21:30:43.774Z,13.14
2023-04-05T21:33:10.635Z,13.06
2023-04-05T21:35:37.560Z,12.90
2023-04-05T21:38:04.100Z,12.87
2023-04-05T21:40:30.774Z,12.72
2023-04-05T21:42:57.606Z,12.78
2023-04-05T21:45:24.431Z,12.79
2023-04-05T21:47:50.984Z,12.84
2023-04-05T21:50:17.512Z,12.86
2023-04-05T21:52:45.365Z,12.89
2023-04-05T21:55:12.216Z,12.82
2023-04-05T21:57:38.744Z,12.77
2023-04-05T22:00:10.702Z,12.61
2023-04-05T22:02:40.148Z,12.64
2023-04-05T22:05:07.586Z,12.65
2023-04-05T22:07:34.468Z,12.69
2023-04-05T22:10:01.668Z,12.62
2023-04-05T22:12:28.376Z,12.60
2023-04-05T22:14:54.891Z,12.63
2023-04-05T22:17:21.552Z,12.60
2023-04-05T22:19:48.361Z,12.64
2023-04-05T22:22:16.671Z,12.55
2023-04-05T22:24:43.469Z,12.52
2023-04-05T22:27:10.051Z,12.35
2023-04-05T22:29:37.114Z,12.43
2023-04-05T22:32:03.697Z,12.47
2023-04-05T22:34:30.468Z,12.43
2023-04-05T22:36:56.961Z,12.42
2023-04-05T22:39:23.463Z,12.15
2023-04-05T22:41:49.960Z,12.20
2023-04-05T22:44:16.437Z,12.29
2023-04-05T22:46:42.983Z,12.24
2023-04-05T22:49:09.659Z,12.27
2023-04-05T22:51:36.331Z,12.11
2023-04-05T22:54:02.816Z,12.11
2023-04-05T22:56:29.304Z,12.13
2023-04-05T22:58:55.867Z,12.02
2023-04-05T23:01:22.465Z,12.04
2023-04-05T23:03:49.014Z,11.96
2023-04-05T23:06:15.900Z,12.09
2023-04-05T23:08:42.423Z,12.07
2023-04-05T23:11:09.015Z,12.00
2023-04-05T23:13:35.501Z,12.03
2023-04-05T23:16:02.154Z,12.05
2023-04-05T23:18:28.666Z,12.05
2023-04-05T23:20:55.427Z,11.96
2023-04-05T23:23:21.927Z,11.91
2023-04-05T23:25:48.474Z,11.90
2023-04-05T23:28:15.414Z,11.92
2023-04-05T23:30:41.925Z,11.83
2023-04-05T23:33:08.582Z,11.47
2023-04-05T23:35:39.804Z,11.54
2023-04-05T23:38:07.214Z,11.60
2023-04-05T23:40:33.868Z,11.66
2023-04-05T23:43:00.583Z,11.60
2023-04-05T23:45:27.088Z,11.68
2023-04-05T23:47:55.520Z,11.69
2023-04-05T23:50:22.132Z,11.69
2023-04-05T23:52:49.380Z,11.71
2023-04-05T23:55:16.307Z,11.70
2023-04-05T23:57:42.924Z,11.48
